createdAt,value
2018-09-01T00:00:14.637Z,1018.6
2018-09-01T00:00:40.769Z,1018.59
2018-09-01T00:01:06.899Z,1018.63
2018-09-01T00:01:33.059Z,1018.6
2018-09-01T00:01:59.210Z,1018.58
2018-09-01T00:02:25.394Z,1018.59
2018-09-01T00:02:51.762Z,1018.55
2018-09-01T00:03:17.910Z,1018.62
2018-09-01T00:03:44.140Z,1018.56
2018-09-01T00:04:10.273Z,1018.56
2018-09-01T00:04:36.432Z,1018.54
2018-09-01T00:05:02.572Z,1018.56
2018-09-01T00:05:28.707Z,1018.54
2018-09-01T00:05:54.877Z,1018.57
2018-09-01T00:06:21.368Z,1018.54
2018-09-01T00:06:47.506Z,1018.53
2018-09-01T00:07:13.678Z,1018.53
2018-09-01T00:07:39.827Z,1018.53
2018-09-01T00:08:05.987Z,1018.53
2018-09-01T00:08:32.116Z,1018.58
2018-09-01T00:08:58.290Z,1018.51
2018-09-01T00:09:24.424Z,1018.53
2018-09-01T00:09:50.562Z,1018.52
2018-09-01T00:10:16.946Z,1018.51
2018-09-01T00:10:43.456Z,1018.52
2018-09-01T00:11:09.689Z,1018.53
2018-09-01T00:11:35.768Z,1018.52
2018-09-01T00:12:01.892Z,1018.5
2018-09-01T00:12:28.031Z,1018.54
2018-09-01T00:12:54.203Z,1018.54
2018-09-01T00:13:20.340Z,1018.53
2018-09-01T00:13:46.475Z,1018.55
2018-09-01T00:14:12.831Z,1018.52
2018-09-01T00:14:39.068Z,1018.52
2018-09-01T00:15:05.190Z,1018.56
2018-09-01T00:15:31.322Z,1018.53
2018-09-01T00:15:57.460Z,1018.51
2018-09-01T00:16:23.597Z,1018.54
2018-09-01T00:16:49.728Z,1018.55
2018-09-01T00:17:15.870Z,1018.54
2018-09-01T00:17:42.086Z,1018.54
2018-09-01T00:18:08.294Z,1018.52
2018-09-01T00:18:34.508Z,1018.55
2018-09-01T00:19:00.668Z,1018.51
2018-09-01T00:19:26.797Z,1018.53
2018-09-01T00:19:52.932Z,1018.51
2018-09-01T00:20:19.069Z,1018.54
2018-09-01T00:20:45.205Z,1018.52
2018-09-01T00:21:11.644Z,1018.52
2018-09-01T00:21:37.803Z,1018.51
2018-09-01T00:22:03.935Z,1018.55
2018-09-01T00:22:30.123Z,1018.53
2018-09-01T00:22:56.253Z,1018.51
2018-09-01T00:23:22.469Z,1018.51
2018-09-01T00:23:48.647Z,1018.52
2018-09-01T00:24:14.943Z,1018.5
2018-09-01T00:24:41.550Z,1018.55
2018-09-01T00:25:07.705Z,1018.54
2018-09-01T00:25:33.839Z,1018.54
2018-09-01T00:26:00.155Z,1018.54
2018-09-01T00:26:26.227Z,1018.53
2018-09-01T00:26:52.371Z,1018.52
2018-09-01T00:27:18.522Z,1018.53
2018-09-01T00:27:44.756Z,1018.53
2018-09-01T00:28:10.896Z,1018.56
2018-09-01T00:28:37.051Z,1018.53
2018-09-01T00:29:03.193Z,1018.54
2018-09-01T00:29:29.330Z,1018.54
2018-09-01T00:29:55.465Z,1018.54
2018-09-01T00:30:21.606Z,1018.53
2018-09-01T00:30:47.811Z,1018.57
2018-09-01T00:31:13.993Z,1018.53
2018-09-01T00:31:40.196Z,1018.55
2018-09-01T00:32:06.417Z,1018.55
2018-09-01T00:32:32.549Z,1018.58
2018-09-01T00:32:58.689Z,1018.56
2018-09-01T00:33:24.820Z,1018.56
2018-09-01T00:33:50.949Z,1018.53
2018-09-01T00:34:17.105Z,1018.55
2018-09-01T00:34:43.242Z,1018.55
2018-09-01T00:35:09.672Z,1018.51
2018-09-01T00:35:36.770Z,1018.54
2018-09-01T00:36:02.909Z,1018.55
2018-09-01T00:36:29.047Z,1018.53
2018-09-01T00:36:55.184Z,1018.53
2018-09-01T00:37:21.379Z,1018.55
2018-09-01T00:37:47.467Z,1018.54
2018-09-01T00:38:13.599Z,1018.5
2018-09-01T00:38:40.520Z,1018.54
2018-09-01T00:39:06.684Z,1018.53
2018-09-01T00:39:32.822Z,1018.53
2018-09-01T00:39:58.959Z,1018.52
2018-09-01T00:40:25.090Z,1018.53
2018-09-01T00:40:51.234Z,1018.51
2018-09-01T00:41:17.387Z,1018.57
2018-09-01T00:41:43.510Z,1018.51
2018-09-01T00:42:09.689Z,1018.52
2018-09-01T00:42:35.926Z,1018.54
2018-09-01T00:43:02.358Z,1018.48
2018-09-01T00:43:28.499Z,1018.51
2018-09-01T00:43:54.631Z,1018.5
2018-09-01T00:44:20.782Z,1018.55
2018-09-01T00:44:46.939Z,1018.55
2018-09-01T00:45:13.103Z,1018.53
2018-09-01T00:45:39.653Z,1018.52
2018-09-01T00:46:05.951Z,1018.56
2018-09-01T00:46:32.077Z,1018.56
2018-09-01T00:46:58.210Z,1018.54
2018-09-01T00:47:24.347Z,1018.58
2018-09-01T00:47:50.881Z,1018.57
2018-09-01T00:48:17.016Z,1018.57
2018-09-01T00:48:43.158Z,1018.56
2018-09-01T00:49:09.288Z,1018.59
2018-09-01T00:49:35.595Z,1018.57
2018-09-01T00:50:01.735Z,1018.57
2018-09-01T00:50:27.884Z,1018.57
2018-09-01T00:50:54.038Z,1018.58
2018-09-01T00:51:20.180Z,1018.6
2018-09-01T00:51:46.314Z,1018.58
2018-09-01T00:52:12.444Z,1018.62
2018-09-01T00:52:38.580Z,1018.58
2018-09-01T00:53:04.721Z,1018.58
2018-09-01T00:53:30.878Z,1018.58
2018-09-01T00:53:57.022Z,1018.6
2018-09-01T00:54:23.157Z,1018.6
2018-09-01T00:54:49.320Z,1018.62
2018-09-01T00:55:15.453Z,1018.63
2018-09-01T00:55:41.608Z,1018.63
2018-09-01T00:56:07.751Z,1018.65
2018-09-01T00:56:33.872Z,1018.64
2018-09-01T00:57:00.005Z,1018.67
2018-09-01T00:57:26.137Z,1018.63
2018-09-01T00:57:52.275Z,1018.6
2018-09-01T00:58:18.403Z,1018.66
2018-09-01T00:58:44.568Z,1018.67
2018-09-01T00:59:10.709Z,1018.63
2018-09-01T00:59:36.836Z,1018.67
2018-09-01T01:00:02.976Z,1018.66
2018-09-01T01:00:29.105Z,1018.64
2018-09-01T01:00:55.239Z,1018.65
2018-09-01T01:01:21.397Z,1018.67
2018-09-01T01:01:47.555Z,1018.7
2018-09-01T01:02:13.686Z,1018.66
2018-09-01T01:02:39.842Z,1018.66
2018-09-01T01:03:05.994Z,1018.72
2018-09-01T01:03:32.150Z,1018.67
2018-09-01T01:03:58.297Z,1018.67
2018-09-01T01:04:24.426Z,1018.67
2018-09-01T01:04:50.561Z,1018.69
2018-09-01T01:05:16.686Z,1018.68
2018-09-01T01:05:42.821Z,1018.73
2018-09-01T01:06:08.949Z,1018.68
2018-09-01T01:06:35.092Z,1018.66
2018-09-01T01:07:01.218Z,1018.69
2018-09-01T01:07:27.376Z,1018.7
2018-09-01T01:07:53.512Z,1018.71
2018-09-01T01:08:19.648Z,1018.7
2018-09-01T01:08:45.781Z,1018.72
2018-09-01T01:09:11.914Z,1018.67
2018-09-01T01:09:38.078Z,1018.7
2018-09-01T01:10:04.209Z,1018.67
2018-09-01T01:10:30.340Z,1018.7
2018-09-01T01:10:56.473Z,1018.72
2018-09-01T01:11:22.634Z,1018.7
2018-09-01T01:11:48.789Z,1018.72
2018-09-01T01:12:14.920Z,1018.71
2018-09-01T01:12:41.055Z,1018.71
2018-09-01T01:13:07.217Z,1018.69
2018-09-01T01:13:33.343Z,1018.7
2018-09-01T01:13:59.477Z,1018.71
2018-09-01T01:14:25.631Z,1018.68
2018-09-01T01:14:51.759Z,1018.7
2018-09-01T01:15:17.895Z,1018.7
2018-09-01T01:15:44.027Z,1018.71
2018-09-01T01:16:10.194Z,1018.73
2018-09-01T01:16:36.341Z,1018.69
2018-09-01T01:17:02.502Z,1018.74
2018-09-01T01:17:28.630Z,1018.74
2018-09-01T01:17:54.791Z,1018.72
2018-09-01T01:18:20.921Z,1018.75
2018-09-01T01:18:47.057Z,1018.7
2018-09-01T01:19:13.199Z,1018.74
2018-09-01T01:19:39.327Z,1018.72
2018-09-01T01:20:05.508Z,1018.75
2018-09-01T01:20:31.630Z,1018.71
2018-09-01T01:20:57.767Z,1018.73
2018-09-01T01:21:23.897Z,1018.74
2018-09-01T01:21:50.080Z,1018.72
2018-09-01T01:22:16.204Z,1018.68
2018-09-01T01:22:42.360Z,1018.71
2018-09-01T01:23:08.495Z,1018.71
2018-09-01T01:23:34.660Z,1018.71
2018-09-01T01:24:00.810Z,1018.67
2018-09-01T01:24:26.943Z,1018.67
2018-09-01T01:24:53.072Z,1018.7
2018-09-01T01:25:19.226Z,1018.69
2018-09-01T01:25:45.360Z,1018.67
2018-09-01T01:26:11.493Z,1018.67
2018-09-01T01:26:37.652Z,1018.66
2018-09-01T01:27:03.782Z,1018.7
2018-09-01T01:27:29.917Z,1018.67
2018-09-01T01:27:56.053Z,1018.68
2018-09-01T01:28:22.209Z,1018.69
2018-09-01T01:28:48.348Z,1018.66
2018-09-01T01:29:14.477Z,1018.7
2018-09-01T01:29:40.604Z,1018.67
2018-09-01T01:30:06.744Z,1018.67
2018-09-01T01:30:32.873Z,1018.71
2018-09-01T01:30:59.011Z,1018.69
2018-09-01T01:31:25.144Z,1018.7
2018-09-01T01:31:51.276Z,1018.68
2018-09-01T01:32:17.406Z,1018.68
2018-09-01T01:32:43.556Z,1018.7
2018-09-01T01:33:09.714Z,1018.67
2018-09-01T01:33:35.844Z,1018.7
2018-09-01T01:34:01.978Z,1018.73
2018-09-01T01:34:28.109Z,1018.67
2018-09-01T01:34:54.241Z,1018.74
2018-09-01T01:35:20.406Z,1018.71
2018-09-01T01:35:46.533Z,1018.7
2018-09-01T01:36:12.693Z,1018.73
2018-09-01T01:36:38.820Z,1018.73
2018-09-01T01:37:04.976Z,1018.72
2018-09-01T01:37:31.119Z,1018.7
2018-09-01T01:37:57.248Z,1018.71
2018-09-01T01:38:23.376Z,1018.73
2018-09-01T01:38:49.515Z,1018.77
2018-09-01T01:39:15.638Z,1018.72
2018-09-01T01:39:41.773Z,1018.77
2018-09-01T01:40:07.911Z,1018.76
2018-09-01T01:40:34.045Z,1018.77
2018-09-01T01:41:00.180Z,1018.74
2018-09-01T01:41:26.313Z,1018.74
2018-09-01T01:41:52.462Z,1018.77
2018-09-01T01:42:18.603Z,1018.76
2018-09-01T01:42:44.768Z,1018.76
2018-09-01T01:43:10.916Z,1018.77
2018-09-01T01:43:37.071Z,1018.72
2018-09-01T01:44:03.204Z,1018.73
2018-09-01T01:44:29.340Z,1018.75
2018-09-01T01:44:55.477Z,1018.73
2018-09-01T01:45:21.639Z,1018.73
2018-09-01T01:45:47.773Z,1018.73
2018-09-01T01:46:13.915Z,1018.7
2018-09-01T01:46:40.070Z,1018.69
2018-09-01T01:47:06.228Z,1018.72
2018-09-01T01:47:32.360Z,1018.73
2018-09-01T01:47:58.512Z,1018.75
2018-09-01T01:48:24.650Z,1018.78
2018-09-01T01:48:50.784Z,1018.76
2018-09-01T01:49:16.921Z,1018.73
2018-09-01T01:49:43.198Z,1018.73
2018-09-01T01:50:09.229Z,1018.77
2018-09-01T01:50:35.356Z,1018.75
2018-09-01T01:51:01.494Z,1018.78
2018-09-01T01:51:27.664Z,1018.77
2018-09-01T01:51:53.802Z,1018.77
2018-09-01T01:52:19.933Z,1018.76
2018-09-01T01:52:46.094Z,1018.72
2018-09-01T01:53:12.234Z,1018.74
2018-09-01T01:53:38.368Z,1018.76
2018-09-01T01:54:04.522Z,1018.77
2018-09-01T01:54:30.679Z,1018.77
2018-09-01T01:54:56.817Z,1018.76
2018-09-01T01:55:22.952Z,1018.78
2018-09-01T01:55:49.085Z,1018.75
2018-09-01T01:56:15.220Z,1018.8
2018-09-01T01:56:41.385Z,1018.76
2018-09-01T01:57:07.516Z,1018.78
2018-09-01T01:57:33.651Z,1018.81
2018-09-01T01:57:59.787Z,1018.76
2018-09-01T01:58:25.917Z,1018.8
2018-09-01T01:58:52.073Z,1018.79
2018-09-01T01:59:18.224Z,1018.81
2018-09-01T01:59:44.356Z,1018.82
2018-09-01T02:00:10.493Z,1018.83
2018-09-01T02:00:36.628Z,1018.84
2018-09-01T02:01:02.766Z,1018.83
2018-09-01T02:01:28.898Z,1018.85
2018-09-01T02:01:55.036Z,1018.87
2018-09-01T02:02:21.170Z,1018.88
2018-09-01T02:02:47.366Z,1018.86
2018-09-01T02:03:13.450Z,1018.91
2018-09-01T02:03:39.592Z,1018.86
2018-09-01T02:04:05.733Z,1018.84
2018-09-01T02:04:31.856Z,1018.88
2018-09-01T02:04:57.987Z,1018.83
2018-09-01T02:05:24.140Z,1018.81
2018-09-01T02:05:50.276Z,1018.8
2018-09-01T02:06:16.435Z,1018.84
2018-09-01T02:06:42.569Z,1018.84
2018-09-01T02:07:08.721Z,1018.82
2018-09-01T02:07:34.880Z,1018.8
2018-09-01T02:08:01.021Z,1018.82
2018-09-01T02:08:27.191Z,1018.8
2018-09-01T02:08:53.327Z,1018.82
2018-09-01T02:09:19.492Z,1018.79
2018-09-01T02:09:45.624Z,1018.79
2018-09-01T02:10:11.758Z,1018.78
2018-09-01T02:10:37.895Z,1018.81
2018-09-01T02:11:04.032Z,1018.82
2018-09-01T02:11:30.163Z,1018.8
2018-09-01T02:11:56.302Z,1018.79
2018-09-01T02:12:22.438Z,1018.79
2018-09-01T02:12:48.596Z,1018.78
2018-09-01T02:13:14.724Z,1018.77
2018-09-01T02:13:40.859Z,1018.79
2018-09-01T02:14:07.011Z,1018.77
2018-09-01T02:14:33.143Z,1018.8
2018-09-01T02:14:59.291Z,1018.78
2018-09-01T02:15:25.415Z,1018.81
2018-09-01T02:15:51.551Z,1018.79
2018-09-01T02:16:17.711Z,1018.82
2018-09-01T02:16:43.868Z,1018.84
2018-09-01T02:17:10.003Z,1018.82
2018-09-01T02:17:36.130Z,1018.84
2018-09-01T02:18:02.297Z,1018.83
2018-09-01T02:18:28.425Z,1018.84
2018-09-01T02:18:54.563Z,1018.86
2018-09-01T02:19:20.691Z,1018.85
2018-09-01T02:19:46.825Z,1018.86
2018-09-01T02:20:12.980Z,1018.89
2018-09-01T02:20:39.110Z,1018.86
2018-09-01T02:21:05.243Z,1018.89
2018-09-01T02:21:31.395Z,1018.86
2018-09-01T02:21:57.522Z,1018.89
2018-09-01T02:22:23.660Z,1018.87
2018-09-01T02:22:49.819Z,1018.9
2018-09-01T02:23:15.975Z,1018.85
2018-09-01T02:23:42.127Z,1018.89
2018-09-01T02:24:08.289Z,1018.88
2018-09-01T02:24:34.449Z,1018.87
2018-09-01T02:25:00.575Z,1018.88
2018-09-01T02:25:26.716Z,1018.87
2018-09-01T02:25:52.850Z,1018.89
2018-09-01T02:26:18.979Z,1018.86
2018-09-01T02:26:45.114Z,1018.87
2018-09-01T02:27:11.277Z,1018.9
2018-09-01T02:27:37.408Z,1018.91
2018-09-01T02:28:03.540Z,1018.89
2018-09-01T02:28:29.674Z,1018.89
2018-09-01T02:28:55.841Z,1018.91
2018-09-01T02:29:22.014Z,1018.89
2018-09-01T02:29:48.148Z,1018.88
2018-09-01T02:30:14.310Z,1018.88
2018-09-01T02:30:40.488Z,1018.88
2018-09-01T02:31:06.666Z,1018.84
2018-09-01T02:31:32.860Z,1018.85
2018-09-01T02:31:58.998Z,1018.82
2018-09-01T02:32:25.135Z,1018.84
2018-09-01T02:32:51.306Z,1018.83
2018-09-01T02:33:17.446Z,1018.87
2018-09-01T02:33:43.603Z,1018.82
2018-09-01T02:34:09.767Z,1018.86
2018-09-01T02:34:35.901Z,1018.89
2018-09-01T02:35:02.056Z,1018.88
2018-09-01T02:35:28.185Z,1018.87
2018-09-01T02:35:54.347Z,1018.9
2018-09-01T02:36:20.503Z,1018.89
2018-09-01T02:36:46.669Z,1018.89
2018-09-01T02:37:12.824Z,1018.9
2018-09-01T02:37:38.960Z,1018.88
2018-09-01T02:38:05.087Z,1018.93
2018-09-01T02:38:31.221Z,1018.9
2018-09-01T02:38:57.403Z,1018.9
2018-09-01T02:39:23.554Z,1018.9
2018-09-01T02:39:49.689Z,1018.88
2018-09-01T02:40:15.829Z,1018.89
2018-09-01T02:40:42.009Z,1018.92
2018-09-01T02:41:08.138Z,1018.89
2018-09-01T02:41:34.295Z,1018.89
2018-09-01T02:42:00.430Z,1018.92
2018-09-01T02:42:26.589Z,1018.9
2018-09-01T02:42:52.722Z,1018.9
2018-09-01T02:43:18.910Z,1018.89
2018-09-01T02:43:45.083Z,1018.88
2018-09-01T02:44:11.241Z,1018.9
2018-09-01T02:44:37.374Z,1018.87
2018-09-01T02:45:03.502Z,1018.87
2018-09-01T02:45:29.666Z,1018.87
2018-09-01T02:45:55.791Z,1018.89
2018-09-01T02:46:21.950Z,1018.88
2018-09-01T02:46:48.077Z,1018.89
2018-09-01T02:47:14.203Z,1018.89
2018-09-01T02:47:40.344Z,1018.9
2018-09-01T02:48:06.498Z,1018.92
2018-09-01T02:48:32.641Z,1018.93
2018-09-01T02:48:58.803Z,1018.9
2018-09-01T02:49:24.978Z,1018.93
2018-09-01T02:49:51.133Z,1018.92
2018-09-01T02:50:17.271Z,1018.95
2018-09-01T02:50:43.402Z,1018.93
2018-09-01T02:51:09.537Z,1018.97
2018-09-01T02:51:35.694Z,1018.94
2018-09-01T02:52:01.832Z,1018.93
2018-09-01T02:52:27.982Z,1018.95
2018-09-01T02:52:54.124Z,1018.96
2018-09-01T02:53:20.253Z,1018.95
2018-09-01T02:53:46.391Z,1018.94
2018-09-01T02:54:12.577Z,1018.93
2018-09-01T02:54:38.717Z,1018.94
2018-09-01T02:55:04.846Z,1018.94
2018-09-01T02:55:30.984Z,1018.9
2018-09-01T02:55:57.113Z,1018.91
2018-09-01T02:56:23.288Z,1018.89
2018-09-01T02:56:49.462Z,1018.89
2018-09-01T02:57:15.631Z,1018.9
2018-09-01T02:57:41.768Z,1018.9
2018-09-01T02:58:07.921Z,1018.89
2018-09-01T02:58:34.055Z,1018.88
2018-09-01T02:59:00.237Z,1018.87
2018-09-01T02:59:26.368Z,1018.89
2018-09-01T02:59:52.525Z,1018.9
2018-09-01T03:00:18.667Z,1018.87
2018-09-01T03:00:44.799Z,1018.84
2018-09-01T03:01:10.950Z,1018.84
2018-09-01T03:01:37.094Z,1018.84
2018-09-01T03:02:03.226Z,1018.8
2018-09-01T03:02:29.380Z,1018.83
2018-09-01T03:02:55.506Z,1018.84
2018-09-01T03:03:21.642Z,1018.8
2018-09-01T03:03:47.766Z,1018.82
2018-09-01T03:04:13.923Z,1018.78
2018-09-01T03:04:40.080Z,1018.83
2018-09-01T03:05:06.237Z,1018.83
2018-09-01T03:05:32.372Z,1018.84
2018-09-01T03:05:58.523Z,1018.79
2018-09-01T03:06:24.661Z,1018.83
2018-09-01T03:06:50.783Z,1018.83
2018-09-01T03:07:16.916Z,1018.86
2018-09-01T03:07:43.072Z,1018.85
2018-09-01T03:08:09.211Z,1018.87
2018-09-01T03:08:35.357Z,1018.87
2018-09-01T03:09:01.515Z,1018.87
2018-09-01T03:09:27.647Z,1018.86
2018-09-01T03:09:53.782Z,1018.89
2018-09-01T03:10:19.964Z,1018.84
2018-09-01T03:10:46.095Z,1018.85
2018-09-01T03:11:12.251Z,1018.87
2018-09-01T03:11:38.378Z,1018.86
2018-09-01T03:12:04.515Z,1018.86
2018-09-01T03:12:30.657Z,1018.84
2018-09-01T03:12:56.787Z,1018.89
2018-09-01T03:13:22.940Z,1018.85
2018-09-01T03:13:49.077Z,1018.84
2018-09-01T03:14:15.218Z,1018.86
2018-09-01T03:14:41.375Z,1018.87
2018-09-01T03:15:07.507Z,1018.84
2018-09-01T03:15:33.639Z,1018.83
2018-09-01T03:15:59.773Z,1018.82
2018-09-01T03:16:25.903Z,1018.86
2018-09-01T03:16:52.033Z,1018.88
2018-09-01T03:17:18.168Z,1018.87
2018-09-01T03:17:44.308Z,1018.86
2018-09-01T03:18:10.458Z,1018.85
2018-09-01T03:18:36.595Z,1018.86
2018-09-01T03:19:02.728Z,1018.83
2018-09-01T03:19:28.893Z,1018.84
2018-09-01T03:19:55.051Z,1018.87
2018-09-01T03:20:21.206Z,1018.85
2018-09-01T03:20:47.340Z,1018.83
2018-09-01T03:21:13.482Z,1018.83
2018-09-01T03:21:39.612Z,1018.86
2018-09-01T03:22:05.744Z,1018.85
2018-09-01T03:22:31.873Z,1018.83
2018-09-01T03:22:58.037Z,1018.86
2018-09-01T03:23:24.190Z,1018.86
2018-09-01T03:23:50.327Z,1018.85
2018-09-01T03:24:16.481Z,1018.87
2018-09-01T03:24:42.618Z,1018.93
2018-09-01T03:25:08.751Z,1018.89
2018-09-01T03:25:34.881Z,1018.89
2018-09-01T03:26:01.013Z,1018.91
2018-09-01T03:26:27.148Z,1018.94
2018-09-01T03:26:53.278Z,1018.91
2018-09-01T03:27:19.434Z,1018.97
2018-09-01T03:27:45.597Z,1018.97
2018-09-01T03:28:11.764Z,1018.96
2018-09-01T03:28:37.896Z,1018.94
2018-09-01T03:29:04.053Z,1018.96
2018-09-01T03:29:30.209Z,1018.99
2018-09-01T03:29:56.390Z,1018.97
2018-09-01T03:30:22.521Z,1018.97
2018-09-01T03:30:48.653Z,1018.97
2018-09-01T03:31:14.803Z,1018.98
2018-09-01T03:31:40.962Z,1018.94
2018-09-01T03:32:07.131Z,1018.96
2018-09-01T03:32:33.309Z,1018.96
2018-09-01T03:32:59.469Z,1019.02
2018-09-01T03:33:25.601Z,1018.96
2018-09-01T03:33:51.734Z,1018.96
2018-09-01T03:34:17.898Z,1018.96
2018-09-01T03:34:44.041Z,1018.97
2018-09-01T03:35:10.195Z,1019
2018-09-01T03:35:36.352Z,1019.01
2018-09-01T03:36:02.502Z,1019
2018-09-01T03:36:28.640Z,1018.98
2018-09-01T03:36:54.799Z,1018.97
2018-09-01T03:37:20.930Z,1018.94
2018-09-01T03:37:47.096Z,1018.93
2018-09-01T03:38:13.238Z,1018.96
2018-09-01T03:38:39.366Z,1018.96
2018-09-01T03:39:05.514Z,1018.98
2018-09-01T03:39:31.667Z,1018.97
2018-09-01T03:39:57.830Z,1018.97
2018-09-01T03:40:23.982Z,1018.94
2018-09-01T03:40:50.116Z,1018.95
2018-09-01T03:41:16.250Z,1018.96
2018-09-01T03:41:42.389Z,1018.95
2018-09-01T03:42:08.511Z,1018.96
2018-09-01T03:42:34.650Z,1018.92
2018-09-01T03:43:00.807Z,1018.98
2018-09-01T03:43:26.962Z,1018.96
2018-09-01T03:43:53.091Z,1018.94
2018-09-01T03:44:19.233Z,1018.98
2018-09-01T03:44:45.414Z,1018.97
2018-09-01T03:45:11.548Z,1018.96
2018-09-01T03:45:37.678Z,1018.96
2018-09-01T03:46:03.831Z,1018.96
2018-09-01T03:46:29.962Z,1019.01
2018-09-01T03:46:56.101Z,1018.99
2018-09-01T03:47:22.235Z,1018.98
2018-09-01T03:47:48.413Z,1018.99
2018-09-01T03:48:14.578Z,1019
2018-09-01T03:48:40.707Z,1019.01
2018-09-01T03:49:06.859Z,1019.01
2018-09-01T03:49:33.019Z,1019.03
2018-09-01T03:49:59.154Z,1018.97
2018-09-01T03:50:25.289Z,1019.05
2018-09-01T03:50:51.445Z,1019.02
2018-09-01T03:51:17.608Z,1019.01
2018-09-01T03:51:43.738Z,1019
2018-09-01T03:52:09.898Z,1018.99
2018-09-01T03:52:36.029Z,1018.99
2018-09-01T03:53:02.161Z,1018.97
2018-09-01T03:53:28.343Z,1018.98
2018-09-01T03:53:54.469Z,1018.94
2018-09-01T03:54:20.607Z,1018.96
2018-09-01T03:54:46.739Z,1018.93
2018-09-01T03:55:12.875Z,1018.95
2018-09-01T03:55:39.025Z,1018.98
2018-09-01T03:56:05.187Z,1018.96
2018-09-01T03:56:31.317Z,1018.97
2018-09-01T03:56:57.446Z,1018.95
2018-09-01T03:57:23.582Z,1018.92
2018-09-01T03:57:49.740Z,1018.96
2018-09-01T03:58:15.895Z,1018.97
2018-09-01T03:58:42.029Z,1018.95
2018-09-01T03:59:08.183Z,1018.97
2018-09-01T03:59:34.362Z,1019.01
2018-09-01T04:00:00.492Z,1018.97
2018-09-01T04:00:26.646Z,1018.99
2018-09-01T04:00:52.782Z,1018.96
2018-09-01T04:01:18.942Z,1018.94
2018-09-01T04:01:45.075Z,1018.99
2018-09-01T04:02:11.204Z,1018.96
2018-09-01T04:02:37.346Z,1018.95
2018-09-01T04:03:03.475Z,1018.95
2018-09-01T04:03:29.613Z,1018.98
2018-09-01T04:03:55.743Z,1018.98
2018-09-01T04:04:21.871Z,1018.95
2018-09-01T04:04:47.999Z,1018.97
2018-09-01T04:05:14.140Z,1018.94
2018-09-01T04:05:40.272Z,1018.95
2018-09-01T04:06:06.414Z,1018.99
2018-09-01T04:06:32.584Z,1018.95
2018-09-01T04:06:58.755Z,1018.94
2018-09-01T04:07:24.911Z,1018.93
2018-09-01T04:07:51.042Z,1018.97
2018-09-01T04:08:17.179Z,1018.92
2018-09-01T04:08:43.333Z,1018.94
2018-09-01T04:09:09.468Z,1018.99
2018-09-01T04:09:35.597Z,1018.96
2018-09-01T04:10:01.730Z,1018.97
2018-09-01T04:10:27.886Z,1018.94
2018-09-01T04:10:54.015Z,1018.98
2018-09-01T04:11:20.151Z,1018.95
2018-09-01T04:11:46.307Z,1018.95
2018-09-01T04:12:12.435Z,1018.93
2018-09-01T04:12:38.598Z,1018.98
2018-09-01T04:13:04.750Z,1018.98
2018-09-01T04:13:30.886Z,1018.97
2018-09-01T04:13:57.021Z,1018.98
2018-09-01T04:14:23.160Z,1018.93
2018-09-01T04:14:49.288Z,1018.95
2018-09-01T04:15:15.444Z,1018.95
2018-09-01T04:15:41.577Z,1018.95
2018-09-01T04:16:07.720Z,1018.96
2018-09-01T04:16:33.851Z,1018.96
2018-09-01T04:16:59.978Z,1018.98
2018-09-01T04:17:26.128Z,1018.99
2018-09-01T04:17:52.313Z,1018.98
2018-09-01T04:18:18.462Z,1018.97
2018-09-01T04:18:44.601Z,1019.03
2018-09-01T04:19:10.739Z,1018.98
2018-09-01T04:19:36.871Z,1019.01
2018-09-01T04:20:02.996Z,1019
2018-09-01T04:20:29.163Z,1019.03
2018-09-01T04:20:55.360Z,1019.02
2018-09-01T04:21:21.486Z,1019.03
2018-09-01T04:21:47.647Z,1019.02
2018-09-01T04:22:13.775Z,1019.02
2018-09-01T04:22:39.910Z,1019.01
2018-09-01T04:23:06.039Z,1019.06
2018-09-01T04:23:32.175Z,1019.04
2018-09-01T04:23:58.303Z,1019.03
2018-09-01T04:24:24.434Z,1019.08
2018-09-01T04:24:50.561Z,1019.06
2018-09-01T04:25:16.720Z,1019.05
2018-09-01T04:25:42.886Z,1019.1
2018-09-01T04:26:09.018Z,1019.09
2018-09-01T04:26:35.144Z,1019.09
2018-09-01T04:27:01.300Z,1019.07
2018-09-01T04:27:27.443Z,1019.07
2018-09-01T04:27:53.584Z,1019.11
2018-09-01T04:28:19.715Z,1019.12
2018-09-01T04:28:45.851Z,1019.1
2018-09-01T04:29:11.979Z,1019.14
2018-09-01T04:29:38.119Z,1019.14
2018-09-01T04:30:04.250Z,1019.12
2018-09-01T04:30:30.437Z,1019.13
2018-09-01T04:30:56.564Z,1019.17
2018-09-01T04:31:22.750Z,1019.12
2018-09-01T04:31:48.926Z,1019.15
2018-09-01T04:32:15.065Z,1019.13
2018-09-01T04:32:41.215Z,1019.19
2018-09-01T04:33:07.357Z,1019.16
2018-09-01T04:33:33.487Z,1019.12
2018-09-01T04:33:59.620Z,1019.1
2018-09-01T04:34:25.778Z,1019.08
2018-09-01T04:34:51.913Z,1019.1
2018-09-01T04:35:18.070Z,1019.08
2018-09-01T04:35:44.231Z,1019.09
2018-09-01T04:36:10.340Z,1019.08
2018-09-01T04:36:36.497Z,1019.1
2018-09-01T04:37:02.653Z,1019.14
2018-09-01T04:37:28.804Z,1019.1
2018-09-01T04:37:54.945Z,1019.08
2018-09-01T04:38:21.075Z,1019.15
2018-09-01T04:38:47.207Z,1019.12
2018-09-01T04:39:13.339Z,1019.17
2018-09-01T04:39:39.529Z,1019.18
2018-09-01T04:40:05.671Z,1019.21
2018-09-01T04:40:31.803Z,1019.11
2018-09-01T04:40:57.941Z,1019.19
2018-09-01T04:41:24.091Z,1019.19
2018-09-01T04:41:50.229Z,1019.19
2018-09-01T04:42:16.365Z,1019.21
2018-09-01T04:42:42.497Z,1019.21
2018-09-01T04:43:08.628Z,1019.21
2018-09-01T04:43:34.781Z,1019.22
2018-09-01T04:44:00.942Z,1019.24
2018-09-01T04:44:27.079Z,1019.23
2018-09-01T04:44:53.261Z,1019.21
2018-09-01T04:45:19.407Z,1019.25
2018-09-01T04:45:45.542Z,1019.23
2018-09-01T04:46:11.674Z,1019.26
2018-09-01T04:46:37.808Z,1019.24
2018-09-01T04:47:04.057Z,1019.3
2018-09-01T04:47:30.138Z,1019.29
2018-09-01T04:47:56.294Z,1019.26
2018-09-01T04:48:22.426Z,1019.26
2018-09-01T04:48:48.589Z,1019.22
2018-09-01T04:49:14.723Z,1019.26
2018-09-01T04:49:40.870Z,1019.24
2018-09-01T04:50:07.010Z,1019.21
2018-09-01T04:50:33.142Z,1019.25
2018-09-01T04:50:59.286Z,1019.24
2018-09-01T04:51:25.412Z,1019.26
2018-09-01T04:51:51.568Z,1019.26
2018-09-01T04:52:17.706Z,1019.24
2018-09-01T04:52:43.833Z,1019.27
2018-09-01T04:53:09.995Z,1019.26
2018-09-01T04:53:36.157Z,1019.27
2018-09-01T04:54:02.287Z,1019.28
2018-09-01T04:54:28.423Z,1019.28
2018-09-01T04:54:54.580Z,1019.29
2018-09-01T04:55:20.735Z,1019.26
2018-09-01T04:55:46.890Z,1019.28
2018-09-01T04:56:13.022Z,1019.3
2018-09-01T04:56:39.180Z,1019.32
2018-09-01T04:57:05.318Z,1019.34
2018-09-01T04:57:31.469Z,1019.29
2018-09-01T04:57:57.595Z,1019.35
2018-09-01T04:58:23.723Z,1019.34
2018-09-01T04:58:49.860Z,1019.34
2018-09-01T04:59:15.993Z,1019.32
2018-09-01T04:59:42.131Z,1019.36
2018-09-01T05:00:08.264Z,1019.35
2018-09-01T05:00:34.414Z,1019.33
2018-09-01T05:01:00.707Z,1019.38
2018-09-01T05:01:26.781Z,1019.33
2018-09-01T05:01:52.861Z,1019.33
2018-09-01T05:02:18.995Z,1019.35
2018-09-01T05:02:45.127Z,1019.36
2018-09-01T05:03:11.294Z,1019.35
2018-09-01T05:03:37.432Z,1019.35
2018-09-01T05:04:03.563Z,1019.31
2018-09-01T05:04:29.716Z,1019.31
2018-09-01T05:04:55.881Z,1019.34
2018-09-01T05:05:22.044Z,1019.32
2018-09-01T05:05:48.180Z,1019.34
2018-09-01T05:06:14.333Z,1019.35
2018-09-01T05:06:40.460Z,1019.33
2018-09-01T05:07:06.627Z,1019.36
2018-09-01T05:07:32.781Z,1019.36
2018-09-01T05:07:58.921Z,1019.36
2018-09-01T05:08:25.095Z,1019.37
2018-09-01T05:08:51.237Z,1019.38
2018-09-01T05:09:17.367Z,1019.4
2018-09-01T05:09:43.524Z,1019.39
2018-09-01T05:10:09.669Z,1019.4
2018-09-01T05:10:35.868Z,1019.4
2018-09-01T05:11:01.997Z,1019.43
2018-09-01T05:11:28.139Z,1019.43
2018-09-01T05:11:54.268Z,1019.41
2018-09-01T05:12:20.421Z,1019.39
2018-09-01T05:12:46.582Z,1019.4
2018-09-01T05:13:12.716Z,1019.41
2018-09-01T05:13:38.854Z,1019.42
2018-09-01T05:14:05.002Z,1019.44
2018-09-01T05:14:31.143Z,1019.42
2018-09-01T05:14:57.272Z,1019.44
2018-09-01T05:15:23.431Z,1019.45
2018-09-01T05:15:49.566Z,1019.4
2018-09-01T05:16:15.696Z,1019.47
2018-09-01T05:16:41.827Z,1019.43
2018-09-01T05:17:07.980Z,1019.48
2018-09-01T05:17:34.130Z,1019.45